Time;durP1;ratioP1;P1;durP2;ratioP2;P2;SDS_P1;SDS_P2;PMS_P1;PMS_P2;Temp;Humidity;BMP_temperature;BMP_pressure;BME280_temperature;BME280_humidity;BME280_pressure;Samples;Min_cycle;Max_cycle;Signal;HPM_P1;HPM_P2
2023/05/11 00:00:44;;;;;;;19.20;14.37;;;12.40;99.90;;;;;;4968472;28;20473;-67
2023/05/11 00:03:12;;;;;;;18.20;13.80;;;12.40;99.90;;;;;;4972449;28;20508;-68
2023/05/11 00:05:42;;;;;;;20.57;15.33;;;12.40;99.90;;;;;;4979512;28;20624;-67
2023/05/11 00:08:09;;;;;;;20.27;16.00;;;12.40;99.90;;;;;;4978400;28;20473;-65
2023/05/11 00:10:37;;;;;;;18.90;14.47;;;12.40;99.90;;;;;;4970763;28;20963;-70
2023/05/11 00:13:05;;;;;;;22.23;15.93;;;12.40;99.90;;;;;;4972819;28;20473;-68
2023/05/11 00:15:33;;;;;;;23.20;17.07;;;12.40;99.90;;;;;;4975051;28;20473;-68
2023/05/11 00:18:01;;;;;;;19.93;15.03;;;12.40;99.90;;;;;;4972702;28;20579;-67
2023/05/11 00:20:29;;;;;;;20.40;15.47;;;12.40;99.90;;;;;;4974383;28;20605;-67
2023/05/11 00:22:59;;;;;;;19.23;13.83;;;12.40;99.90;;;;;;4975233;28;20516;-68
2023/05/11 00:25:27;;;;;;;21.03;15.07;;;12.40;99.90;;;;;;4984027;28;20846;-69
2023/05/11 00:27:55;;;;;;;20.53;14.27;;;12.40;99.90;;;;;;4974457;28;20504;-67
2023/05/11 00:30:23;;;;;;;20.97;15.50;;;12.40;99.90;;;;;;4976865;28;20536;-68
2023/05/11 00:32:51;;;;;;;19.13;14.33;;;12.40;99.90;;;;;;4970215;28;20477;-69
2023/05/11 00:35:19;;;;;;;22.80;16.10;;;12.40;99.90;;;;;;4963535;28;20661;-67
2023/05/11 00:37:47;;;;;;;22.10;16.10;;;12.40;99.90;;;;;;4955572;28;20489;-67
2023/05/11 00:40:16;;;;;;;20.60;15.40;;;12.40;99.90;;;;;;4961378;28;20481;-67
2023/05/11 00:42:45;;;;;;;20.53;15.70;;;12.30;99.90;;;;;;4957620;28;20500;-70
2023/05/11 00:45:13;;;;;;;19.50;15.13;;;12.30;99.90;;;;;;4956822;28;20553;-68
2023/05/11 00:47:41;;;;;;;24.57;16.63;;;12.30;99.90;;;;;;4970650;28;20503;-67
2023/05/11 00:50:10;;;;;;;23.57;16.10;;;12.30;99.90;;;;;;4964279;28;20500;-67
2023/05/11 00:52:38;;;;;;;22.17;16.70;;;12.30;99.90;;;;;;4967693;28;20469;-69
2023/05/11 00:55:07;;;;;;;22.10;16.40;;;12.30;99.90;;;;;;4970912;28;20971;-68
2023/05/11 00:57:38;;;;;;;22.30;15.90;;;12.30;99.90;;;;;;4967256;28;20493;-67
2023/05/11 01:00:07;;;;;;;21.27;16.07;;;12.30;99.90;;;;;;4970217;28;20494;-70
2023/05/11 01:02:35;;;;;;;20.43;15.00;;;12.30;99.90;;;;;;4971819;28;20504;-67
2023/05/11 01:05:04;;;;;;;24.57;16.80;;;12.30;99.90;;;;;;4980818;28;20465;-68
2023/05/11 01:07:35;;;;;;;21.83;16.13;;;12.30;99.90;;;;;;4969381;28;20586;-67
2023/05/11 01:10:13;;;;;;;19.73;14.50;;;12.30;99.90;;;;;;4968271;28;20908;-68
2023/05/11 01:12:51;;;;;;;19.80;15.30;;;12.30;99.90;;;;;;4967762;28;20469;-68
2023/05/11 01:15:25;;;;;;;22.10;15.10;;;12.30;99.90;;;;;;4973517;28;20476;-67
2023/05/11 01:18:01;;;;;;;17.90;15.00;;;12.30;99.90;;;;;;4980173;28;20489;-69
2023/05/11 01:20:30;;;;;;;20.00;14.07;;;12.30;99.90;;;;;;4972000;28;21063;-68
2023/05/11 01:23:42;;;;;;;19.30;15.07;;;12.30;99.90;;;;;;4964587;28;20497;-67
2023/05/11 01:26:29;;;;;;;20.10;15.17;;;12.30;99.90;;;;;;4970609;28;21532;-67
2023/05/11 01:29:28;;;;;;;19.07;14.03;;;12.30;99.90;;;;;;4958161;28;20941;-67
2023/05/11 01:31:59;;;;;;;19.83;14.77;;;12.30;99.90;;;;;;4965517;28;20556;-68
2023/05/11 01:34:33;;;;;;;19.03;14.63;;;12.30;99.90;;;;;;4961937;28;21305;-67
2023/05/11 01:37:09;;;;;;;17.53;14.60;;;12.30;99.90;;;;;;4957422;28;20496;-68
2023/05/11 01:39:42;;;;;;;19.50;15.23;;;12.30;99.90;;;;;;4955408;28;20535;-68
2023/05/11 01:42:11;;;;;;;18.60;14.43;;;12.30;99.90;;;;;;4962120;28;20921;-68
2023/05/11 01:44:42;;;;;;;17.07;13.50;;;12.30;99.90;;;;;;4966925;28;20497;-68
2023/05/11 01:47:13;;;;;;;18.77;14.77;;;12.30;99.90;;;;;;4959598;28;20509;-68
2023/05/11 01:49:44;;;;;;;20.00;14.40;;;12.20;99.90;;;;;;4952583;28;21669;-68
2023/05/11 01:52:14;;;;;;;16.20;13.10;;;12.30;99.90;;;;;;4961297;28;21053;-67
2023/05/11 01:54:43;;;;;;;18.50;14.37;;;12.30;99.90;;;;;;4956911;28;20477;-67
2023/05/11 01:57:12;;;;;;;18.10;14.40;;;12.30;99.90;;;;;;4957850;28;20982;-67
2023/05/11 01:59:41;;;;;;;19.20;14.17;;;12.20;99.90;;;;;;4960086;28;20493;-67
2023/05/11 02:02:11;;;;;;;16.80;13.40;;;12.30;99.90;;;;;;4958719;28;20477;-67
2023/05/11 02:04:41;;;;;;;18.20;14.30;;;12.20;99.90;;;;;;4955488;28;20781;-67
2023/05/11 02:07:11;;;;;;;18.27;14.20;;;12.30;99.90;;;;;;4963787;28;22301;-67
2023/05/11 02:09:40;;;;;;;17.40;13.27;;;12.30;99.90;;;;;;4958807;28;20493;-67
2023/05/11 02:12:10;;;;;;;20.63;14.37;;;12.30;99.90;;;;;;4966551;28;20504;-67
2023/05/11 02:14:40;;;;;;;17.07;12.90;;;12.30;99.90;;;;;;4963831;28;20477;-67
2023/05/11 02:17:09;;;;;;;18.17;13.40;;;12.30;99.90;;;;;;4959673;28;20492;-68
2023/05/11 02:19:41;;;;;;;17.37;13.80;;;12.30;99.90;;;;;;4957557;28;20788;-66
2023/05/11 02:22:11;;;;;;;16.37;13.23;;;12.20;99.90;;;;;;4956791;28;21005;-67
2023/05/11 02:24:39;;;;;;;15.87;13.17;;;12.20;99.90;;;;;;4965006;28;20560;-67
2023/05/11 02:27:07;;;;;;;16.27;12.40;;;12.20;99.90;;;;;;4963579;28;20498;-67
2023/05/11 02:29:35;;;;;;;16.77;13.10;;;12.20;99.90;;;;;;4973239;28;20559;-67
2023/05/11 02:32:07;;;;;;;15.10;12.90;;;12.20;99.90;;;;;;4949000;28;22349;-67
2023/05/11 02:34:42;;;;;;;16.17;13.03;;;12.20;99.90;;;;;;4957505;28;21549;-67
2023/05/11 02:37:13;;;;;;;16.67;13.57;;;12.20;99.90;;;;;;4965414;28;20496;-67
2023/05/11 02:39:45;;;;;;;14.80;11.50;;;12.10;99.90;;;;;;4962463;28;20500;-67
2023/05/11 02:42:18;;;;;;;14.40;11.20;;;12.10;99.90;;;;;;4966731;28;20481;-67
2023/05/11 02:44:53;;;;;;;14.10;12.03;;;12.20;99.90;;;;;;4974147;28;20497;-67
2023/05/11 02:47:22;;;;;;;11.73;10.47;;;12.10;99.90;;;;;;4971039;28;21105;-67
2023/05/11 02:49:55;;;;;;;14.80;12.23;;;12.10;99.90;;;;;;4974679;28;20500;-68
2023/05/11 02:52:25;;;;;;;12.67;10.70;;;12.10;99.90;;;;;;4980054;28;20465;-68
2023/05/11 02:54:55;;;;;;;13.60;11.33;;;12.10;99.90;;;;;;4981667;28;20469;-69
2023/05/11 02:57:23;;;;;;;13.70;11.50;;;12.10;99.90;;;;;;4979845;28;20489;-67
2023/05/11 02:59:52;;;;;;;13.00;11.07;;;12.10;99.90;;;;;;4977345;28;20875;-68
2023/05/11 03:02:20;;;;;;;13.73;10.70;;;12.10;99.90;;;;;;4977983;28;21057;-68
2023/05/11 03:04:48;;;;;;;13.07;10.67;;;12.10;99.90;;;;;;4980856;28;20498;-68
2023/05/11 03:07:17;;;;;;;17.37;12.60;;;12.20;99.90;;;;;;4967238;28;20509;-67
2023/05/11 03:09:45;;;;;;;17.03;13.07;;;12.10;99.90;;;;;;4976532;28;20472;-68
2023/05/11 03:12:14;;;;;;;17.53;13.70;;;12.10;99.90;;;;;;4979545;28;20480;-68
2023/05/11 03:14:44;;;;;;;16.90;12.73;;;12.10;99.90;;;;;;4970508;28;20474;-67
2023/05/11 03:17:13;;;;;;;18.47;13.57;;;12.10;99.90;;;;;;4960380;28;20976;-67
2023/05/11 03:19:42;;;;;;;17.67;12.07;;;12.10;99.90;;;;;;4959913;28;20489;-67
2023/05/11 03:22:11;;;;;;;17.90;13.43;;;12.10;99.90;;;;;;4965610;28;20472;-68
2023/05/11 03:24:41;;;;;;;16.10;11.63;;;12.10;99.90;;;;;;4968922;28;20520;-68
2023/05/11 03:27:11;;;;;;;15.63;11.90;;;12.10;99.90;;;;;;4958691;28;20579;-68
2023/05/11 03:29:42;;;;;;;16.97;12.43;;;12.10;99.90;;;;;;4956840;28;20516;-67
2023/05/11 03:32:10;;;;;;;17.37;13.20;;;12.10;99.90;;;;;;4968587;28;20477;-67
2023/05/11 03:34:38;;;;;;;16.47;13.50;;;12.10;99.90;;;;;;4951181;28;20513;-69
2023/05/11 03:37:07;;;;;;;17.20;12.90;;;12.10;99.90;;;;;;4958880;28;20507;-67
2023/05/11 03:39:38;;;;;;;16.83;12.83;;;12.00;99.90;;;;;;4954726;28;20493;-67
2023/05/11 03:42:08;;;;;;;17.23;13.00;;;12.00;99.90;;;;;;4958720;28;20477;-67
2023/05/11 03:44:37;;;;;;;15.50;12.37;;;12.00;99.90;;;;;;4958462;28;20501;-67
2023/05/11 03:47:06;;;;;;;16.83;11.97;;;12.00;99.90;;;;;;4964222;28;20492;-67
2023/05/11 03:49:36;;;;;;;16.93;12.33;;;12.00;99.90;;;;;;4964447;28;20497;-67
2023/05/11 03:52:06;;;;;;;18.30;13.60;;;12.10;99.90;;;;;;4963483;28;20491;-67
2023/05/11 03:54:34;;;;;;;17.20;12.10;;;12.00;99.90;;;;;;4961656;28;20554;-67
2023/05/11 03:57:03;;;;;;;17.20;12.70;;;12.00;99.90;;;;;;4965265;28;20503;-67
2023/05/11 03:59:33;;;;;;;17.23;12.87;;;12.00;99.90;;;;;;4963345;28;20620;-67
2023/05/11 04:02:02;;;;;;;15.63;11.97;;;12.00;99.90;;;;;;4976923;28;20468;-67
2023/05/11 04:04:30;;;;;;;15.80;11.93;;;12.00;99.90;;;;;;4975938;28;20485;-67
2023/05/11 04:06:58;;;;;;;16.80;12.00;;;12.00;99.90;;;;;;4979757;28;20595;-67
2023/05/11 04:09:27;;;;;;;17.90;12.57;;;12.00;99.90;;;;;;4982576;28;20518;-67
2023/05/11 04:11:54;;;;;;;14.80;11.90;;;12.00;99.90;;;;;;4981137;28;20548;-67
2023/05/11 04:14:22;;;;;;;17.20;12.30;;;12.00;99.90;;;;;;4981012;28;20474;-67
2023/05/11 04:16:52;;;;;;;16.63;12.77;;;12.00;99.90;;;;;;4976056;28;20504;-67
2023/05/11 04:19:20;;;;;;;16.97;12.93;;;12.00;99.90;;;;;;4981564;28;20573;-66
2023/05/11 04:21:48;;;;;;;16.80;12.30;;;12.00;99.90;;;;;;4980993;28;20597;-67
2023/05/11 04:24:16;;;;;;;16.17;12.40;;;12.00;99.90;;;;;;4979104;28;20481;-67
2023/05/11 04:26:44;;;;;;;18.63;13.57;;;12.00;99.90;;;;;;4980643;28;20497;-66
2023/05/11 04:29:11;;;;;;;17.80;13.10;;;12.00;99.90;;;;;;4973533;28;20497;-67
2023/05/11 04:31:39;;;;;;;16.20;12.67;;;12.00;99.90;;;;;;4976241;28;20465;-66
2023/05/11 04:34:09;;;;;;;16.90;12.70;;;12.10;99.90;;;;;;4974519;28;20474;-67
2023/05/11 04:36:37;;;;;;;15.70;12.53;;;12.10;99.90;;;;;;4979210;28;20491;-67
2023/05/11 04:39:05;;;;;;;15.00;11.77;;;12.10;99.90;;;;;;4974568;28;20498;-67
2023/05/11 04:41:34;;;;;;;17.40;12.93;;;12.10;99.90;;;;;;4964063;28;21003;-67
2023/05/11 04:44:02;;;;;;;18.70;12.80;;;12.00;99.90;;;;;;4960767;28;20481;-68
2023/05/11 04:46:30;;;;;;;16.63;12.90;;;12.00;99.90;;;;;;4966315;28;20500;-67
2023/05/11 04:48:58;;;;;;;18.87;12.93;;;12.10;99.90;;;;;;4971134;28;20492;-68
2023/05/11 04:51:28;;;;;;;19.03;13.73;;;12.10;99.90;;;;;;4974062;28;20469;-68
2023/05/11 04:53:55;;;;;;;18.90;13.50;;;12.00;99.90;;;;;;4960855;28;21730;-68
2023/05/11 04:56:23;;;;;;;18.57;12.93;;;12.00;99.90;;;;;;4964938;28;20873;-67
2023/05/11 04:58:51;;;;;;;15.97;12.63;;;12.00;99.90;;;;;;4965031;28;22122;-67
2023/05/11 05:01:19;;;;;;;17.83;13.67;;;12.00;99.90;;;;;;4972029;28;20869;-68
2023/05/11 05:03:51;;;;;;;17.90;13.27;;;12.10;99.90;;;;;;4965262;28;20945;-67
2023/05/11 05:06:19;;;;;;;18.07;14.07;;;12.10;99.90;;;;;;4963865;28;20507;-68
2023/05/11 05:08:48;;;;;;;18.53;13.30;;;12.10;99.90;;;;;;4963972;28;20504;-71
2023/05/11 05:11:16;;;;;;;14.80;10.83;;;12.10;99.90;;;;;;4964260;28;20477;-67
2023/05/11 05:13:44;;;;;;;14.17;10.50;;;12.10;99.90;;;;;;4979638;28;20473;-69
2023/05/11 05:16:12;;;;;;;14.27;10.07;;;12.10;99.90;;;;;;4978912;28;21032;-66
2023/05/11 05:18:40;;;;;;;12.20;9.40;;;12.10;99.90;;;;;;4968360;28;20503;-67
2023/05/11 05:21:08;;;;;;;11.27;9.47;;;12.10;99.90;;;;;;4971150;28;20472;-66
2023/05/11 05:23:36;;;;;;;10.60;9.50;;;12.10;99.90;;;;;;4977729;28;20486;-68
2023/05/11 05:26:08;;;;;;;11.30;9.00;;;12.20;99.90;;;;;;4973312;28;20501;-67
2023/05/11 05:28:36;;;;;;;14.30;9.90;;;12.20;99.90;;;;;;4974538;28;20504;-67
2023/05/11 05:31:04;;;;;;;10.40;8.60;;;12.20;99.90;;;;;;4971005;28;20477;-67
2023/05/11 05:33:32;;;;;;;11.93;9.20;;;12.20;99.90;;;;;;4973339;28;20505;-67
2023/05/11 05:36:00;;;;;;;11.10;9.23;;;12.30;99.90;;;;;;4980220;28;20466;-67
2023/05/11 05:38:28;;;;;;;9.60;8.43;;;12.30;99.90;;;;;;4981829;28;20473;-66
2023/05/11 05:40:56;;;;;;;11.10;8.60;;;12.30;99.90;;;;;;4979687;28;20473;-67
2023/05/11 05:43:25;;;;;;;10.40;8.70;;;12.30;99.90;;;;;;4975881;28;20473;-67
2023/05/11 05:45:53;;;;;;;13.20;9.23;;;12.30;99.90;;;;;;4980317;28;20496;-67
2023/05/11 05:48:21;;;;;;;11.00;8.97;;;12.30;99.90;;;;;;4976572;28;20569;-66
2023/05/11 05:50:49;;;;;;;11.10;8.90;;;12.30;99.90;;;;;;4982019;28;20517;-67
2023/05/11 05:53:17;;;;;;;12.47;8.90;;;12.30;99.90;;;;;;4982190;28;20489;-67
2023/05/11 05:55:45;;;;;;;11.77;8.80;;;12.30;99.90;;;;;;4982189;28;20470;-67
2023/05/11 05:58:13;;;;;;;12.70;9.00;;;12.30;99.90;;;;;;4979103;28;20470;-66
2023/05/11 06:00:43;;;;;;;11.27;8.80;;;12.30;99.90;;;;;;4977566;28;20482;-68
2023/05/11 06:03:10;;;;;;;10.63;8.60;;;12.40;99.90;;;;;;4982684;28;20967;-67
2023/05/11 06:05:38;;;;;;;12.83;9.40;;;12.40;99.90;;;;;;4979905;28;20496;-68
2023/05/11 06:08:07;;;;;;;11.77;9.80;;;12.40;99.90;;;;;;4980967;28;20873;-67
2023/05/11 06:10:38;;;;;;;13.50;8.83;;;12.40;99.90;;;;;;4978979;28;20492;-66
2023/05/11 06:13:07;;;;;;;11.60;9.37;;;12.40;99.90;;;;;;4981597;28;20565;-67
2023/05/11 06:15:35;;;;;;;12.27;8.37;;;12.50;99.90;;;;;;4979219;28;20477;-67
2023/05/11 06:18:05;;;;;;;11.57;8.23;;;12.50;99.90;;;;;;4981922;28;20519;-68
2023/05/11 06:20:33;;;;;;;13.43;8.27;;;12.50;99.90;;;;;;4980261;28;20489;-67
2023/05/11 06:23:01;;;;;;;11.60;8.43;;;12.50;99.90;;;;;;4982860;28;20492;-66
2023/05/11 06:25:29;;;;;;;10.27;8.60;;;12.50;99.90;;;;;;4980598;28;20496;-66
2023/05/11 06:28:00;;;;;;;12.43;8.67;;;12.60;99.90;;;;;;4981021;28;20548;-67
2023/05/11 06:30:28;;;;;;;12.93;9.30;;;12.60;99.90;;;;;;4980227;28;20485;-67
2023/05/11 06:32:56;;;;;;;10.30;8.20;;;12.60;99.90;;;;;;4979438;28;20512;-68
2023/05/11 06:35:26;;;;;;;10.83;8.90;;;12.60;99.90;;;;;;4981488;28;21220;-67
2023/05/11 06:37:54;;;;;;;11.17;8.87;;;12.70;99.90;;;;;;4980925;28;20492;-67
2023/05/11 06:40:22;;;;;;;11.07;8.23;;;12.60;99.90;;;;;;4975795;28;20490;-67
2023/05/11 06:42:50;;;;;;;13.20;9.50;;;12.70;99.90;;;;;;4975846;28;20488;-67
2023/05/11 06:45:18;;;;;;;12.00;8.73;;;12.70;99.90;;;;;;4977645;28;20486;-68
2023/05/11 06:47:46;;;;;;;15.20;10.33;;;12.70;99.90;;;;;;4979924;28;20529;-67
2023/05/11 06:50:14;;;;;;;11.43;9.20;;;12.80;99.90;;;;;;4975573;28;21033;-67
2023/05/11 06:52:44;;;;;;;17.47;10.17;;;12.80;99.90;;;;;;4978396;28;20473;-68
2023/05/11 06:55:13;;;;;;;11.57;8.77;;;12.80;99.90;;;;;;4978025;28;20479;-67
2023/05/11 06:57:41;;;;;;;14.97;10.47;;;12.80;99.90;;;;;;4979940;28;20485;-66
2023/05/11 07:00:10;;;;;;;13.23;9.40;;;12.80;99.90;;;;;;4975566;28;20493;-68
2023/05/11 07:02:38;;;;;;;15.07;10.70;;;12.90;99.90;;;;;;4980868;28;20478;-67
2023/05/11 07:05:07;;;;;;;17.33;11.17;;;12.90;99.90;;;;;;4978104;28;20502;-68
2023/05/11 07:07:35;;;;;;;14.70;9.80;;;12.90;99.90;;;;;;4977936;28;20496;-68
2023/05/11 07:10:05;;;;;;;16.23;9.87;;;12.90;99.90;;;;;;4977682;28;20497;-67
2023/05/11 07:12:33;;;;;;;18.07;11.57;;;12.90;99.90;;;;;;4981306;28;20476;-66
2023/05/11 07:15:01;;;;;;;13.90;10.17;;;13.00;99.90;;;;;;4976033;28;20476;-67
2023/05/11 07:17:29;;;;;;;13.33;9.30;;;13.00;99.90;;;;;;4980177;28;20485;-66
2023/05/11 07:19:57;;;;;;;15.50;10.63;;;13.00;99.90;;;;;;4977792;28;20493;-69
2023/05/11 07:22:25;;;;;;;15.10;10.10;;;13.10;99.90;;;;;;4978785;28;20476;-67
2023/05/11 07:24:53;;;;;;;15.10;10.70;;;13.10;99.90;;;;;;4975445;28;20477;-68
2023/05/11 07:27:22;;;;;;;16.33;9.77;;;13.20;99.90;;;;;;4977684;28;20527;-67
2023/05/11 07:29:53;;;;;;;15.83;11.00;;;13.30;99.90;;;;;;4979955;28;20495;-66
2023/05/11 07:32:21;;;;;;;19.70;12.43;;;13.30;99.90;;;;;;4977209;28;20918;-68
2023/05/11 07:34:49;;;;;;;18.77;11.57;;;13.30;99.90;;;;;;4978161;28;20477;-69
2023/05/11 07:37:17;;;;;;;17.30;11.23;;;13.30;99.90;;;;;;4979359;28;20489;-68
2023/05/11 07:39:45;;;;;;;17.30;10.80;;;13.30;99.90;;;;;;4969637;28;20489;-67
2023/05/11 07:42:13;;;;;;;16.83;12.53;;;13.30;99.90;;;;;;4976783;28;20589;-67
2023/05/11 07:44:42;;;;;;;17.77;11.60;;;13.30;99.90;;;;;;4978205;28;20477;-67
2023/05/11 07:47:10;;;;;;;14.20;10.57;;;13.30;99.90;;;;;;4977228;28;20505;-68
2023/05/11 07:49:39;;;;;;;14.93;10.37;;;13.40;99.90;;;;;;4976560;28;20482;-68
2023/05/11 07:52:10;;;;;;;16.80;11.67;;;13.40;99.90;;;;;;4979017;28;20468;-68
2023/05/11 07:54:39;;;;;;;18.13;11.53;;;13.40;99.90;;;;;;4975789;28;20474;-68
2023/05/11 07:57:07;;;;;;;14.07;11.60;;;13.40;99.90;;;;;;4979737;28;20489;-66
2023/05/11 07:59:35;;;;;;;18.30;11.50;;;13.50;99.90;;;;;;4979935;28;20492;-68
2023/05/11 08:02:06;;;;;;;16.70;11.50;;;13.60;99.90;;;;;;4979024;28;20472;-70
2023/05/11 08:04:35;;;;;;;17.83;12.17;;;13.60;99.90;;;;;;4981355;28;20508;-67
2023/05/11 08:07:03;;;;;;;17.33;11.53;;;13.60;99.90;;;;;;4976169;28;21008;-67
2023/05/11 08:09:31;;;;;;;13.60;10.20;;;13.60;99.90;;;;;;4974497;28;21002;-68
2023/05/11 08:12:00;;;;;;;16.07;10.73;;;13.70;99.90;;;;;;4979701;28;20510;-68
2023/05/11 08:14:28;;;;;;;15.63;10.73;;;13.70;99.90;;;;;;4977795;28;21046;-68
2023/05/11 08:16:56;;;;;;;14.97;10.23;;;13.70;99.90;;;;;;4979031;28;20484;-67
2023/05/11 08:19:26;;;;;;;17.00;10.83;;;13.70;99.90;;;;;;4975488;28;21070;-68
2023/05/11 08:21:54;;;;;;;14.07;10.20;;;13.80;99.90;;;;;;4979986;28;20575;-67
2023/05/11 08:24:22;;;;;;;14.07;9.93;;;13.80;99.90;;;;;;4975656;28;20480;-67
2023/05/11 08:26:50;;;;;;;14.20;9.90;;;13.80;99.90;;;;;;4976988;28;20505;-68
2023/05/11 08:29:18;;;;;;;13.60;9.47;;;13.90;99.90;;;;;;4967515;28;20486;-67
2023/05/11 08:31:46;;;;;;;14.30;10.23;;;14.00;99.90;;;;;;4977806;28;20906;-67
2023/05/11 08:34:14;;;;;;;13.53;9.93;;;14.00;99.90;;;;;;4975269;28;20842;-66
2023/05/11 08:36:48;;;;;;;15.10;10.13;;;14.00;99.90;;;;;;4976859;28;20489;-69
2023/05/11 08:39:16;;;;;;;14.80;9.60;;;14.00;99.90;;;;;;4968443;28;20481;-67
2023/05/11 08:42:06;;;;;;;12.17;9.63;;;14.10;99.90;;;;;;4979642;28;20520;-69
2023/05/11 08:44:36;;;;;;;12.30;8.33;;;14.10;99.90;;;;;;4982780;28;20469;-68
2023/05/11 08:47:05;;;;;;;11.27;8.40;;;14.20;99.90;;;;;;4979202;28;20495;-67
2023/05/11 08:49:51;;;;;;;14.13;10.10;;;14.20;99.90;;;;;;4982078;28;20853;-67
2023/05/11 08:52:21;;;;;;;13.00;9.00;;;14.20;99.90;;;;;;4981720;28;20588;-68
2023/05/11 08:54:49;;;;;;;10.10;8.97;;;14.20;99.90;;;;;;4982565;28;20477;-67
2023/05/11 08:57:18;;;;;;;11.10;8.80;;;14.20;99.90;;;;;;4980613;28;20493;-67
2023/05/11 08:59:46;;;;;;;13.27;9.40;;;14.20;99.90;;;;;;4982671;28;20557;-67
2023/05/11 09:02:16;;;;;;;12.03;8.60;;;14.20;99.90;;;;;;4980443;28;20470;-68
2023/05/11 09:04:45;;;;;;;13.10;9.63;;;14.10;99.90;;;;;;4983317;28;20861;-67
2023/05/11 09:07:16;;;;;;;15.97;9.70;;;14.10;99.90;;;;;;4979077;28;20588;-67
2023/05/11 09:09:47;;;;;;;14.80;10.57;;;14.10;99.90;;;;;;4982352;28;20627;-67
2023/05/11 09:12:16;;;;;;;12.20;9.73;;;14.10;99.90;;;;;;4984173;28;20462;-68
2023/05/11 09:14:45;;;;;;;12.00;10.03;;;14.10;99.90;;;;;;4980980;28;20469;-67
2023/05/11 09:17:13;;;;;;;11.57;8.90;;;14.10;99.90;;;;;;4975627;28;20959;-69
2023/05/11 09:19:58;;;;;;;13.30;10.27;;;14.10;99.90;;;;;;4981557;28;20527;-68
2023/05/11 09:22:26;;;;;;;12.20;9.83;;;14.10;99.90;;;;;;4979537;28;20979;-68
2023/05/11 09:25:00;;;;;;;11.40;8.90;;;14.10;99.90;;;;;;4981279;28;20564;-67
2023/05/11 09:27:28;;;;;;;17.20;10.20;;;14.10;99.90;;;;;;4981803;28;20502;-67
2023/05/11 09:29:56;;;;;;;13.33;9.97;;;14.10;99.90;;;;;;4982485;28;20478;-67
2023/05/11 09:32:25;;;;;;;14.60;10.10;;;14.00;99.90;;;;;;4981357;28;20498;-68
2023/05/11 09:34:55;;;;;;;13.80;10.23;;;14.00;99.90;;;;;;4981379;28;20890;-66
2023/05/11 09:37:23;;;;;;;13.93;11.20;;;14.00;99.90;;;;;;4977360;28;20561;-67
2023/05/11 09:39:55;;;;;;;14.80;10.80;;;14.00;99.90;;;;;;4979488;28;20498;-68
2023/05/11 09:42:27;;;;;;;14.73;10.67;;;14.00;99.90;;;;;;4977546;28;20472;-67
2023/05/11 09:44:55;;;;;;;12.57;10.73;;;14.00;99.90;;;;;;4980706;28;20473;-67
2023/05/11 09:47:23;;;;;;;14.50;11.30;;;14.00;99.90;;;;;;4980340;28;20505;-67
2023/05/11 09:49:51;;;;;;;15.77;11.07;;;14.00;99.90;;;;;;4978750;28;20478;-67
2023/05/11 09:52:19;;;;;;;14.80;11.67;;;14.00;99.90;;;;;;4980693;28;20477;-67
2023/05/11 09:54:50;;;;;;;16.80;10.70;;;14.00;99.90;;;;;;4981128;28;20469;-68
2023/05/11 09:57:27;;;;;;;18.60;10.63;;;14.00;99.90;;;;;;4980467;28;20517;-67
2023/05/11 09:59:57;;;;;;;17.80;11.83;;;14.00;99.90;;;;;;4979168;28;20488;-67
2023/05/11 10:02:27;;;;;;;16.67;11.57;;;14.00;99.90;;;;;;4981532;28;21022;-68
2023/05/11 10:04:57;;;;;;;13.53;10.80;;;14.00;99.90;;;;;;4982009;28;20880;-68
2023/05/11 10:07:27;;;;;;;15.40;10.33;;;14.00;99.90;;;;;;4978676;28;21052;-69
2023/05/11 10:09:56;;;;;;;17.90;11.07;;;14.00;99.90;;;;;;4979731;28;20485;-69
2023/05/11 10:12:26;;;;;;;16.97;12.27;;;14.00;99.90;;;;;;4979606;28;20469;-69
2023/05/11 10:15:00;;;;;;;14.37;11.40;;;14.00;99.90;;;;;;4977737;28;20517;-67
2023/05/11 10:17:29;;;;;;;19.00;10.93;;;14.10;99.90;;;;;;4979191;28;20500;-67
2023/05/11 10:19:58;;;;;;;13.40;11.00;;;14.10;99.90;;;;;;4980490;28;20551;-67
2023/05/11 10:22:27;;;;;;;14.77;10.70;;;14.10;99.90;;;;;;4978361;28;20509;-67
2023/05/11 10:24:57;;;;;;;12.47;10.10;;;14.10;99.90;;;;;;4981608;28;21108;-68
2023/05/11 10:27:26;;;;;;;11.97;9.23;;;14.20;99.90;;;;;;4981541;28;20503;-68
2023/05/11 10:29:55;;;;;;;13.00;9.10;;;14.20;99.90;;;;;;4981331;28;21026;-67
2023/05/11 10:32:23;;;;;;;12.47;9.60;;;14.30;99.90;;;;;;4980165;28;21755;-66
2023/05/11 10:34:51;;;;;;;15.03;10.00;;;14.40;99.90;;;;;;4980727;28;20477;-67
2023/05/11 10:37:20;;;;;;;12.20;9.60;;;14.50;99.90;;;;;;4978060;28;21077;-67
2023/05/11 10:39:49;;;;;;;12.37;9.10;;;14.60;99.90;;;;;;4977980;28;20488;-67
2023/05/11 10:42:46;;;;;;;9.53;8.40;;;14.70;99.90;;;;;;4980675;28;20478;-67
2023/05/11 10:45:21;;;;;;;11.30;8.83;;;14.80;99.90;;;;;;4981271;28;20477;-67
2023/05/11 10:48:11;;;;;;;8.60;7.70;;;14.90;99.90;;;;;;4980409;28;20501;-67
2023/05/11 10:50:56;;;;;;;9.13;8.20;;;14.90;99.90;;;;;;4976821;28;20497;-67
2023/05/11 10:53:41;;;;;;;10.70;8.30;;;14.90;99.90;;;;;;4982396;28;20477;-66
2023/05/11 10:56:23;;;;;;;10.20;7.97;;;15.00;99.90;;;;;;4979006;28;20501;-67
2023/05/11 10:59:09;;;;;;;9.50;8.57;;;15.00;99.90;;;;;;4978911;28;20481;-67
2023/05/11 11:01:40;;;;;;;10.80;8.77;;;15.00;99.90;;;;;;4979519;28;20564;-68
2023/05/11 11:04:10;;;;;;;10.77;9.27;;;15.00;99.90;;;;;;4975674;28;20478;-67
2023/05/11 11:06:39;;;;;;;10.97;8.50;;;15.00;99.90;;;;;;4978317;28;20574;-67
2023/05/11 11:09:11;;;;;;;18.37;9.53;;;15.00;99.90;;;;;;4964256;28;20526;-67
2023/05/11 11:11:41;;;;;;;14.57;9.67;;;15.00;99.90;;;;;;4979070;28;20465;-67
2023/05/11 11:14:10;;;;;;;14.50;9.40;;;15.00;99.90;;;;;;4978437;28;20465;-67
2023/05/11 11:16:40;;;;;;;11.13;8.73;;;15.10;99.90;;;;;;4970530;28;20508;-67
2023/05/11 11:19:37;;;;;;;10.97;9.23;;;15.10;99.90;;;;;;4970854;28;20492;-68
2023/05/11 11:22:05;;;;;;;9.70;8.47;;;15.10;99.90;;;;;;4969187;28;20480;-69
2023/05/11 11:24:44;;;;;;;11.43;9.50;;;15.20;99.90;;;;;;4967542;28;20474;-66
2023/05/11 11:27:12;;;;;;;10.43;9.17;;;15.20;99.90;;;;;;4963797;28;20492;-67
2023/05/11 11:29:40;;;;;;;10.43;8.40;;;15.20;99.90;;;;;;4966738;28;21241;-67
2023/05/11 11:32:28;;;;;;;10.60;8.83;;;15.20;99.90;;;;;;4970447;28;20474;-68
2023/05/11 11:34:56;;;;;;;13.20;8.60;;;15.30;99.90;;;;;;4973985;28;20544;-68
2023/05/11 11:37:24;;;;;;;11.30;9.20;;;15.30;99.90;;;;;;4977608;28;20582;-67
2023/05/11 11:40:00;;;;;;;10.37;9.27;;;15.40;99.90;;;;;;4968556;28;20490;-67
2023/05/11 11:42:43;;;;;;;9.77;8.77;;;15.40;99.90;;;;;;4978792;28;20468;-66
2023/05/11 11:45:33;;;;;;;10.00;8.30;;;15.50;99.90;;;;;;4982070;28;20473;-67
2023/05/11 11:48:14;;;;;;;12.53;8.67;;;15.50;99.90;;;;;;4976476;28;20589;-68
2023/05/11 11:50:44;;;;;;;12.67;8.97;;;15.60;99.90;;;;;;4976163;28;20488;-67
2023/05/11 11:54:05;;;;;;;9.47;8.57;;;15.70;99.90;;;;;;4978082;28;20989;-67
2023/05/11 11:56:40;;;;;;;11.30;8.10;;;15.80;99.90;;;;;;4980890;28;20495;-68
2023/05/11 11:59:12;;;;;;;9.30;8.40;;;15.80;99.90;;;;;;4978387;28;21029;-68
2023/05/11 12:01:42;;;;;;;9.93;8.90;;;15.80;99.90;;;;;;4980595;28;20469;-68
2023/05/11 12:04:39;;;;;;;9.70;8.33;;;15.80;99.90;;;;;;4978986;28;20561;-68
2023/05/11 12:07:10;;;;;;;13.80;9.43;;;15.90;99.90;;;;;;4966497;28;20506;-68
2023/05/11 12:09:39;;;;;;;10.30;7.77;;;16.10;99.90;;;;;;4974256;28;21011;-67
2023/05/11 12:12:09;;;;;;;9.27;8.37;;;16.30;99.90;;;;;;4971521;28;20531;-68
2023/05/11 12:14:39;;;;;;;12.07;8.93;;;16.50;99.90;;;;;;4974538;28;20478;-67
2023/05/11 12:17:14;;;;;;;11.93;8.70;;;16.60;99.90;;;;;;4979991;28;20526;-68
2023/05/11 12:19:44;;;;;;;11.87;9.10;;;16.60;99.90;;;;;;4978092;28;20484;-67
2023/05/11 12:22:13;;;;;;;9.80;8.50;;;16.60;99.90;;;;;;4978817;28;20480;-67
2023/05/11 12:24:42;;;;;;;8.90;8.10;;;16.60;99.90;;;;;;4979729;28;20491;-68
2023/05/11 12:27:10;;;;;;;10.97;9.20;;;16.60;99.90;;;;;;4982128;28;20493;-67
2023/05/11 12:29:40;;;;;;;10.17;9.17;;;16.70;99.90;;;;;;4976073;28;20496;-67
2023/05/11 12:32:12;;;;;;;9.47;8.50;;;16.80;99.90;;;;;;4970994;28;21034;-68
2023/05/11 12:34:41;;;;;;;10.37;8.50;;;16.90;99.90;;;;;;4978808;28;20480;-68
2023/05/11 12:37:10;;;;;;;9.87;8.87;;;16.80;99.90;;;;;;4969989;28;20490;-68
2023/05/11 12:39:38;;;;;;;11.13;9.13;;;16.80;99.90;;;;;;4963994;28;20512;-68
2023/05/11 12:42:06;;;;;;;9.20;8.33;;;16.80;99.90;;;;;;4968889;28;20482;-68
2023/05/11 12:44:35;;;;;;;8.90;8.10;;;16.80;99.90;;;;;;4979932;28;21102;-68
2023/05/11 12:47:03;;;;;;;8.90;8.10;;;17.00;99.90;;;;;;4969332;28;20616;-68